createdAt,value
2023-02-15T00:00:04.145Z,0.30
2023-02-15T00:02:30.819Z,0.30
2023-02-15T00:04:57.657Z,0.30
2023-02-15T00:07:24.394Z,0.20
2023-02-15T00:09:51.128Z,0.10
2023-02-15T00:12:18.064Z,0.20
2023-02-15T00:14:45.162Z,0.20
2023-02-15T00:17:11.999Z,0.20
2023-02-15T00:19:38.880Z,0.30
2023-02-15T00:22:05.651Z,0.30
2023-02-15T00:24:32.440Z,0.40
2023-02-15T00:26:59.544Z,0.30
2023-02-15T00:29:26.348Z,0.40
2023-02-15T00:31:53.573Z,0.50
2023-02-15T00:34:25.752Z,0.60
2023-02-15T00:36:52.720Z,0.70
2023-02-15T00:39:20.071Z,0.70
2023-02-15T00:41:47.582Z,0.70
2023-02-15T00:44:15.010Z,0.50
2023-02-15T00:46:41.780Z,0.30
2023-02-15T00:49:08.576Z,0.20
2023-02-15T00:51:35.318Z,0.10
2023-02-15T00:54:02.073Z,0.00
2023-02-15T00:56:29.428Z,0.00
2023-02-15T00:58:56.715Z,0.00
2023-02-15T01:01:24.421Z,0.10
2023-02-15T01:03:51.307Z,0.20
2023-02-15T01:06:19.111Z,0.10
2023-02-15T01:08:46.956Z,0.10
2023-02-15T01:11:25.326Z,-0.10
2023-02-15T01:13:54.697Z,-0.20
2023-02-15T01:16:21.860Z,-0.20
2023-02-15T01:18:49.348Z,-0.20
2023-02-15T01:21:18.653Z,-0.20
2023-02-15T01:23:45.529Z,-0.20
2023-02-15T01:26:12.442Z,-0.30
2023-02-15T01:28:39.207Z,-0.20
2023-02-15T01:31:08.088Z,-0.30
2023-02-15T01:33:36.124Z,-0.30
2023-02-15T01:36:03.688Z,-0.20
2023-02-15T01:38:30.659Z,-0.20
2023-02-15T01:41:16.095Z,-0.10
2023-02-15T01:43:45.544Z,-0.20
2023-02-15T01:46:13.987Z,-0.30
2023-02-15T01:48:49.779Z,-0.30
2023-02-15T01:51:20.957Z,-0.40
2023-02-15T01:53:59.908Z,-0.40
2023-02-15T01:56:31.436Z,-0.50
2023-02-15T01:59:02.898Z,-0.50
2023-02-15T02:01:29.991Z,-0.50
2023-02-15T02:04:12.014Z,-0.50
2023-02-15T02:06:39.980Z,-0.50
2023-02-15T02:09:07.087Z,-0.50
2023-02-15T02:11:35.317Z,-0.40
2023-02-15T02:14:02.083Z,-0.50
2023-02-15T02:16:37.635Z,-0.50
2023-02-15T02:19:32.094Z,-0.50
2023-02-15T02:22:17.236Z,-0.50
2023-02-15T02:25:02.760Z,-0.50
2023-02-15T02:27:35.487Z,-0.50
2023-02-15T02:30:41.028Z,-0.60
2023-02-15T02:33:21.324Z,-0.60
2023-02-15T02:36:06.110Z,-0.60
2023-02-15T02:39:00.137Z,-0.60
2023-02-15T02:44:07.492Z,-0.90
2023-02-15T02:46:45.248Z,-0.80
2023-02-15T02:49:12.864Z,-0.80
2023-02-15T02:51:39.561Z,-0.80
2023-02-15T02:54:08.140Z,-0.80
2023-02-15T02:56:41.831Z,-0.80
2023-02-15T02:59:25.262Z,-0.80
2023-02-15T03:02:13.782Z,-0.80
2023-02-15T03:04:45.445Z,-0.70
2023-02-15T03:07:18.810Z,-0.70
2023-02-15T03:09:49.852Z,-0.70
2023-02-15T03:12:25.282Z,-0.60
2023-02-15T03:14:56.025Z,-0.60
2023-02-15T03:17:26.834Z,-0.50
2023-02-15T03:19:56.661Z,-0.50
2023-02-15T03:22:29.292Z,-0.50
2023-02-15T03:25:10.454Z,-0.50
2023-02-15T03:27:51.511Z,-0.40
2023-02-15T03:30:21.849Z,-0.40
2023-02-15T03:32:50.952Z,-0.60
2023-02-15T03:35:18.772Z,-0.70
2023-02-15T03:37:52.751Z,-0.80
2023-02-15T03:40:41.666Z,-1.00
2023-02-15T03:43:18.116Z,-1.10
2023-02-15T03:45:56.119Z,-1.00
2023-02-15T03:48:27.984Z,-0.90
2023-02-15T03:51:22.197Z,-0.90
2023-02-15T03:53:50.000Z,-0.90
2023-02-15T03:56:16.698Z,-0.80
2023-02-15T03:59:02.102Z,-0.80
2023-02-15T04:01:54.737Z,-0.80
2023-02-15T04:04:25.626Z,-0.90
2023-02-15T04:06:52.525Z,-0.90
2023-02-15T04:12:05.387Z,-0.80
2023-02-15T04:17:18.059Z,-0.70
2023-02-15T04:20:03.151Z,-0.60
2023-02-15T04:22:48.641Z,-0.50
2023-02-15T04:25:15.514Z,-0.50
2023-02-15T04:27:48.329Z,-0.60
2023-02-15T04:30:17.106Z,-0.70
2023-02-15T04:32:43.906Z,-0.80
2023-02-15T04:35:10.752Z,-0.80
2023-02-15T04:37:37.935Z,-0.80
2023-02-15T04:40:06.356Z,-0.80
2023-02-15T04:42:33.757Z,-0.70
2023-02-15T04:45:00.516Z,-0.70
2023-02-15T04:49:55.190Z,-0.70
2023-02-15T04:52:23.377Z,-0.60
2023-02-15T05:02:11.550Z,-0.70
2023-02-15T05:07:05.505Z,-0.70
2023-02-15T05:11:59.324Z,-0.90
2023-02-15T05:24:36.454Z,-0.70
2023-02-15T05:29:49.319Z,-0.90
2023-02-15T05:32:16.621Z,-1.00
2023-02-15T05:34:43.509Z,-1.00
2023-02-15T05:39:37.400Z,-1.10
2023-02-15T05:42:04.339Z,-1.00
2023-02-15T05:44:31.064Z,-1.10
2023-02-15T05:46:57.790Z,-1.20
2023-02-15T05:51:51.779Z,-1.10
2023-02-15T06:04:07.534Z,-0.60
2023-02-15T06:09:02.315Z,-0.60
2023-02-15T06:11:29.115Z,-0.70
2023-02-15T06:13:55.934Z,-0.80
2023-02-15T06:16:23.278Z,-0.80
2023-02-15T06:21:20.391Z,-0.70
2023-02-15T06:23:47.067Z,-0.60
2023-02-15T06:26:13.790Z,-0.60
2023-02-15T06:28:42.069Z,-0.70
2023-02-15T06:33:36.433Z,-0.80
2023-02-15T06:36:04.770Z,-1.00
2023-02-15T06:38:32.230Z,-1.00
2023-02-15T06:40:59.152Z,-0.90
2023-02-15T06:53:14.492Z,-0.90
2023-02-15T06:55:41.229Z,-0.90
2023-02-15T06:58:08.067Z,-0.80
2023-02-15T07:03:03.068Z,-0.70
2023-02-15T07:08:00.420Z,-0.90
2023-02-15T07:10:27.891Z,-1.00
2023-02-15T07:12:54.840Z,-1.00
2023-02-15T07:15:23.131Z,-1.00
2023-02-15T07:17:50.198Z,-1.00
2023-02-15T07:20:20.315Z,-0.80
2023-02-15T07:22:47.439Z,-0.70
2023-02-15T07:25:14.826Z,-0.50
2023-02-15T07:27:42.274Z,-0.10
2023-02-15T07:30:14.404Z,0.50
2023-02-15T07:35:31.724Z,1.70
2023-02-15T07:37:58.436Z,2.00
2023-02-15T07:40:25.367Z,2.30
2023-02-15T07:42:54.171Z,2.60
2023-02-15T07:45:21.751Z,3.10
2023-02-15T07:47:48.565Z,3.60
2023-02-15T07:50:15.433Z,4.10
2023-02-15T07:52:42.246Z,4.60
2023-02-15T07:55:09.863Z,5.00
2023-02-15T07:57:36.729Z,5.30
2023-02-15T08:00:04.715Z,5.90
2023-02-15T08:02:31.571Z,6.30
2023-02-15T08:04:58.322Z,6.50
2023-02-15T08:07:25.077Z,6.50
2023-02-15T08:09:51.781Z,6.70
2023-02-15T08:14:45.609Z,7.00
2023-02-15T08:17:12.405Z,7.00
2023-02-15T08:19:39.125Z,7.10
2023-02-15T08:22:07.947Z,7.30
2023-02-15T08:24:40.299Z,7.50
2023-02-15T08:27:08.605Z,7.20
2023-02-15T08:29:37.557Z,7.40
2023-02-15T08:32:07.836Z,7.70
2023-02-15T08:34:40.084Z,8.00
2023-02-15T08:37:06.919Z,8.00
2023-02-15T08:39:34.206Z,7.70
2023-02-15T08:42:00.953Z,8.00
2023-02-15T08:44:27.736Z,8.20
2023-02-15T08:46:55.667Z,8.40
2023-02-15T08:49:23.180Z,8.40
2023-02-15T08:51:51.020Z,8.50
2023-02-15T08:54:20.487Z,8.80
2023-02-15T08:56:48.116Z,9.00
2023-02-15T08:59:20.371Z,9.20
2023-02-15T09:01:48.978Z,9.10
2023-02-15T09:04:16.820Z,9.30
2023-02-15T09:06:48.119Z,9.30
2023-02-15T09:09:16.050Z,9.40
2023-02-15T09:11:44.867Z,9.40
2023-02-15T09:14:18.055Z,9.70
2023-02-15T09:16:49.508Z,9.90
2023-02-15T09:19:21.034Z,9.80
2023-02-15T09:21:48.060Z,9.50
2023-02-15T09:24:16.748Z,9.50
2023-02-15T09:26:45.972Z,9.50
2023-02-15T09:29:13.895Z,9.50
2023-02-15T09:31:45.094Z,9.50
2023-02-15T09:34:14.205Z,10.00
2023-02-15T09:36:42.247Z,10.00
2023-02-15T09:39:16.080Z,9.10
2023-02-15T09:41:48.361Z,9.00
2023-02-15T09:44:39.869Z,8.80
2023-02-15T09:47:25.218Z,8.50
2023-02-15T09:50:41.019Z,8.30
2023-02-15T09:53:53.303Z,8.30
2023-02-15T09:56:40.556Z,8.60
2023-02-15T09:59:32.008Z,8.60
2023-02-15T10:02:27.998Z,9.20
2023-02-15T10:05:06.840Z,9.00
2023-02-15T10:07:56.481Z,8.30
2023-02-15T10:10:36.739Z,8.60
2023-02-15T10:13:31.924Z,8.50
2023-02-15T10:16:12.065Z,8.40
2023-02-15T10:18:53.889Z,8.50
2023-02-15T10:21:48.207Z,8.90
2023-02-15T10:24:25.609Z,9.40
2023-02-15T10:26:57.648Z,9.70
2023-02-15T10:29:28.253Z,9.80
2023-02-15T10:32:24.504Z,9.80
2023-02-15T10:35:02.593Z,9.90
2023-02-15T10:37:47.969Z,9.80
2023-02-15T10:40:52.614Z,10.00
2023-02-15T10:43:37.815Z,10.10
2023-02-15T10:46:34.584Z,9.40
2023-02-15T10:49:16.191Z,9.40
2023-02-15T10:51:42.873Z,9.70
2023-02-15T10:54:22.415Z,9.90
2023-02-15T10:57:03.750Z,9.90
2023-02-15T11:00:00.585Z,9.90
2023-02-15T11:02:43.463Z,9.90
2023-02-15T11:05:34.126Z,9.80
2023-02-15T11:08:04.918Z,9.90
2023-02-15T11:10:38.690Z,9.90
2023-02-15T11:13:29.352Z,9.90
2023-02-15T11:16:07.427Z,10.10
2023-02-15T11:18:40.098Z,10.80
2023-02-15T11:21:24.258Z,10.80
2023-02-15T11:23:52.310Z,10.70
2023-02-15T11:26:31.234Z,10.20
2023-02-15T11:29:30.415Z,10.10
2023-02-15T11:32:23.227Z,10.10
2023-02-15T11:35:01.724Z,10.30
2023-02-15T11:37:58.537Z,10.20
2023-02-15T11:40:29.403Z,10.80
2023-02-15T11:43:05.215Z,11.30
2023-02-15T11:45:36.160Z,10.90
2023-02-15T11:48:11.576Z,10.80
2023-02-15T11:50:38.605Z,10.90
2023-02-15T11:53:28.534Z,11.40
2023-02-15T11:55:56.325Z,12.00
2023-02-15T11:59:01.547Z,12.00
2023-02-15T12:02:00.951Z,12.10
2023-02-15T12:04:35.489Z,11.90
2023-02-15T12:07:24.062Z,11.60
2023-02-15T12:10:14.850Z,11.60
2023-02-15T12:12:41.823Z,11.30
2023-02-15T12:15:10.547Z,10.90
2023-02-15T12:17:51.313Z,10.90
2023-02-15T12:20:17.975Z,11.50
2023-02-15T12:23:02.973Z,11.50
2023-02-15T12:25:54.474Z,11.60
2023-02-15T12:28:34.914Z,11.70
2023-02-15T12:31:04.585Z,11.70
2023-02-15T12:33:46.472Z,11.90
2023-02-15T12:36:25.019Z,11.60
2023-02-15T12:39:20.638Z,11.60
2023-02-15T12:41:56.233Z,11.90
2023-02-15T12:44:27.002Z,11.60
2023-02-15T12:47:02.156Z,11.80
2023-02-15T12:49:38.682Z,11.80
2023-02-15T12:52:23.968Z,12.00
2023-02-15T12:54:51.923Z,12.10
2023-02-15T12:57:23.222Z,12.30
2023-02-15T12:59:56.480Z,11.80
2023-02-15T13:02:57.867Z,11.80
2023-02-15T13:05:38.123Z,11.50
2023-02-15T13:08:18.160Z,11.70
2023-02-15T13:11:05.187Z,11.70
2023-02-15T13:13:37.362Z,11.70
2023-02-15T13:16:13.277Z,11.60
2023-02-15T13:18:46.701Z,11.50
2023-02-15T13:21:17.673Z,11.80
2023-02-15T13:23:50.881Z,12.10
2023-02-15T13:26:22.175Z,12.10
2023-02-15T13:28:54.268Z,12.20
2023-02-15T13:31:25.745Z,12.10
2023-02-15T13:33:54.373Z,12.30
2023-02-15T13:36:35.792Z,12.30
2023-02-15T13:39:21.306Z,12.20
2023-02-15T13:41:54.360Z,12.20
2023-02-15T13:44:47.214Z,12.00
2023-02-15T13:47:37.834Z,12.00
2023-02-15T13:50:31.348Z,12.40
2023-02-15T13:53:20.660Z,12.50
2023-02-15T13:55:53.017Z,12.70
2023-02-15T13:58:28.908Z,12.60
2023-02-15T14:01:09.428Z,12.30
2023-02-15T14:03:45.105Z,12.10
2023-02-15T14:06:20.574Z,12.20
2023-02-15T14:09:12.145Z,12.10
2023-02-15T14:12:00.414Z,12.00
2023-02-15T14:15:09.312Z,12.20
2023-02-15T14:17:47.641Z,12.20
2023-02-15T14:20:33.080Z,12.20
2023-02-15T14:23:16.413Z,12.00
2023-02-15T14:26:01.587Z,12.00
2023-02-15T14:29:25.582Z,12.00
2023-02-15T14:31:58.483Z,12.10
2023-02-15T14:34:45.357Z,12.10
2023-02-15T14:37:14.772Z,12.60
2023-02-15T14:40:16.474Z,12.60
2023-02-15T14:42:48.835Z,12.60
2023-02-15T14:45:32.631Z,12.40
2023-02-15T14:48:16.412Z,12.50
2023-02-15T14:50:45.890Z,12.40
2023-02-15T14:53:30.848Z,12.30
2023-02-15T14:56:24.519Z,12.10
2023-02-15T14:58:51.149Z,12.10
2023-02-15T15:01:30.587Z,12.00
2023-02-15T15:04:04.062Z,11.70
2023-02-15T15:06:36.681Z,11.70
2023-02-15T15:09:22.239Z,11.60
2023-02-15T15:11:51.076Z,11.70
2023-02-15T15:14:33.129Z,11.50
2023-02-15T15:17:02.301Z,11.50
2023-02-15T15:19:52.240Z,11.40
2023-02-15T15:22:23.434Z,11.10
2023-02-15T15:24:53.352Z,10.90
2023-02-15T15:27:42.753Z,10.90
2023-02-15T15:30:15.366Z,10.90
2023-02-15T15:33:00.284Z,10.90
2023-02-15T15:35:44.997Z,10.90
2023-02-15T15:38:55.478Z,10.70
2023-02-15T15:41:43.887Z,10.70
2023-02-15T15:44:32.258Z,10.60
2023-02-15T15:47:20.736Z,10.60
2023-02-15T15:49:47.677Z,10.50
2023-02-15T15:52:19.498Z,10.40
2023-02-15T15:54:49.172Z,10.30
2023-02-15T15:57:30.923Z,10.20
2023-02-15T16:00:00.616Z,10.10
2023-02-15T16:02:27.803Z,10.00
2023-02-15T16:04:54.878Z,9.90
2023-02-15T16:07:26.703Z,9.80
2023-02-15T16:09:58.122Z,9.70
2023-02-15T16:12:25.838Z,9.70
2023-02-15T16:14:54.309Z,9.60
2023-02-15T16:17:25.007Z,9.50
2023-02-15T16:19:53.768Z,9.40
2023-02-15T16:22:28.803Z,9.00
2023-02-15T16:25:04.384Z,8.80
2023-02-15T16:27:39.518Z,8.50
2023-02-15T16:30:24.399Z,8.30
2023-02-15T16:33:12.964Z,8.00
2023-02-15T16:35:55.922Z,7.80
2023-02-15T16:38:48.484Z,7.60
2023-02-15T16:41:28.093Z,7.50
2023-02-15T16:43:57.823Z,7.30
2023-02-15T16:46:43.805Z,7.20
2023-02-15T16:49:23.812Z,7.10
2023-02-15T16:52:02.408Z,7.00
2023-02-15T16:54:30.935Z,6.80
2023-02-15T16:56:58.336Z,6.40
2023-02-15T16:59:40.738Z,6.30
2023-02-15T17:02:27.396Z,6.20
2023-02-15T17:05:08.272Z,6.20
2023-02-15T17:07:41.017Z,6.20
2023-02-15T17:10:29.289Z,6.10
2023-02-15T17:13:01.280Z,6.00
2023-02-15T17:15:37.051Z,5.90
2023-02-15T17:18:17.512Z,5.90
2023-02-15T17:20:45.655Z,5.90
2023-02-15T17:23:34.384Z,6.00
2023-02-15T17:26:12.057Z,5.70
2023-02-15T17:28:41.863Z,5.50
2023-02-15T17:31:09.413Z,5.30
2023-02-15T17:33:40.158Z,5.30
2023-02-15T17:36:16.924Z,5.30
2023-02-15T17:38:58.702Z,5.30
2023-02-15T17:41:32.213Z,5.20
2023-02-15T17:43:59.041Z,5.00
2023-02-15T17:46:27.351Z,5.00
2023-02-15T17:48:56.923Z,5.00
2023-02-15T17:51:23.986Z,4.90
2023-02-15T17:54:09.164Z,4.70
2023-02-15T17:56:37.665Z,4.60
2023-02-15T17:59:09.488Z,4.50
2023-02-15T18:01:59.520Z,4.50
2023-02-15T18:07:32.649Z,4.50
2023-02-15T18:10:18.178Z,4.40
2023-02-15T18:12:44.927Z,4.40
2023-02-15T18:15:13.134Z,4.30
2023-02-15T18:17:46.020Z,4.20
2023-02-15T18:20:18.507Z,4.20
2023-02-15T18:22:46.519Z,4.20
2023-02-15T18:25:14.918Z,4.20
2023-02-15T18:27:41.748Z,4.20
2023-02-15T18:30:13.742Z,4.10
2023-02-15T18:32:41.364Z,4.00
2023-02-15T18:35:13.975Z,3.90
2023-02-15T18:37:41.963Z,3.80
2023-02-15T18:40:16.633Z,3.80
2023-02-15T18:42:48.135Z,3.70
2023-02-15T18:45:19.775Z,3.70
2023-02-15T18:47:47.528Z,3.70
2023-02-15T18:50:16.348Z,3.60
2023-02-15T18:52:46.093Z,3.60
2023-02-15T18:55:19.782Z,3.60
2023-02-15T18:57:48.043Z,3.60
2023-02-15T19:00:16.788Z,3.50
2023-02-15T19:02:43.710Z,3.30
2023-02-15T19:05:10.574Z,3.20
2023-02-15T19:07:37.891Z,3.30
2023-02-15T19:10:07.899Z,3.30
2023-02-15T19:12:35.355Z,3.20
2023-02-15T19:15:02.219Z,3.30
2023-02-15T19:17:28.984Z,3.40
2023-02-15T19:19:55.728Z,3.40
2023-02-15T19:22:27.363Z,3.50
2023-02-15T19:24:56.943Z,3.60
2023-02-15T19:27:31.364Z,3.60
2023-02-15T19:30:13.541Z,3.40
2023-02-15T19:32:40.419Z,3.30
2023-02-15T19:35:13.043Z,3.20
2023-02-15T19:37:42.573Z,3.20
2023-02-15T19:40:29.086Z,3.20
2023-02-15T19:42:56.637Z,3.20
2023-02-15T19:45:26.091Z,3.10
2023-02-15T19:47:55.149Z,3.10
2023-02-15T19:50:29.516Z,3.00
2023-02-15T19:52:57.607Z,3.00
2023-02-15T19:55:28.258Z,3.10
2023-02-15T19:57:56.969Z,3.00
2023-02-15T20:00:34.213Z,2.90
2023-02-15T20:03:01.519Z,2.90
2023-02-15T20:05:30.483Z,2.80
2023-02-15T20:07:58.445Z,2.70
2023-02-15T20:10:29.307Z,2.70
2023-02-15T20:12:56.948Z,2.60
2023-02-15T20:15:25.040Z,2.50
2023-02-15T20:17:52.525Z,2.50
2023-02-15T20:20:20.542Z,2.50
2023-02-15T20:22:50.016Z,2.60
2023-02-15T20:25:21.728Z,2.70
2023-02-15T20:30:21.680Z,2.90
2023-02-15T20:32:49.409Z,3.00
2023-02-15T20:35:21.790Z,3.10
2023-02-15T20:37:56.406Z,3.30
2023-02-15T20:40:29.851Z,3.50
2023-02-15T20:42:56.665Z,3.40
2023-02-15T20:45:29.277Z,3.40
2023-02-15T20:47:56.456Z,3.30
2023-02-15T20:50:30.031Z,3.30
2023-02-15T20:52:58.635Z,3.30
2023-02-15T20:55:28.963Z,3.20
2023-02-15T20:57:57.004Z,3.30
2023-02-15T21:00:26.869Z,3.30
2023-02-15T21:03:01.678Z,3.40
2023-02-15T21:05:32.851Z,3.40
2023-02-15T21:07:59.947Z,3.40
2023-02-15T21:10:33.044Z,3.40
2023-02-15T21:13:01.027Z,3.30
2023-02-15T21:15:36.017Z,3.10
2023-02-15T21:18:06.520Z,3.10
2023-02-15T21:20:35.395Z,3.10
2023-02-15T21:23:04.726Z,3.00
2023-02-15T21:25:36.524Z,3.10
2023-02-15T21:28:04.633Z,3.00
2023-02-15T21:30:31.690Z,2.90
2023-02-15T21:32:58.439Z,2.80
2023-02-15T21:35:25.361Z,2.70
2023-02-15T21:37:53.305Z,2.60
2023-02-15T21:40:37.962Z,2.60
2023-02-15T21:43:31.572Z,2.70
2023-02-15T21:46:18.324Z,2.60
2023-02-15T21:48:46.420Z,2.70
2023-02-15T21:51:31.868Z,2.80
2023-02-15T21:53:58.583Z,3.00
2023-02-15T21:56:25.425Z,3.00
2023-02-15T21:58:52.151Z,2.90
2023-02-15T22:01:27.486Z,2.90
2023-02-15T22:03:57.570Z,2.80
2023-02-15T22:06:24.572Z,2.70
2023-02-15T22:08:51.422Z,2.60
2023-02-15T22:11:22.467Z,2.50
2023-02-15T22:13:50.456Z,2.50
2023-02-15T22:16:20.074Z,2.50
2023-02-15T22:18:47.317Z,2.40
2023-02-15T22:21:16.597Z,2.30
2023-02-15T22:23:43.516Z,2.20
2023-02-15T22:26:22.826Z,2.20
2023-02-15T22:28:50.066Z,2.20
2023-02-15T22:31:21.006Z,2.20
2023-02-15T22:33:49.808Z,2.20
2023-02-15T22:36:24.859Z,2.10
2023-02-15T22:38:52.297Z,1.90
2023-02-15T22:41:20.239Z,1.80
2023-02-15T22:43:50.280Z,1.70
2023-02-15T22:46:19.885Z,1.70
2023-02-15T22:48:50.174Z,1.80
2023-02-15T22:51:20.912Z,1.80
2023-02-15T22:53:52.243Z,1.90
2023-02-15T22:56:23.229Z,1.90
2023-02-15T22:58:50.514Z,1.90
2023-02-15T23:01:37.999Z,1.70
2023-02-15T23:04:05.004Z,1.60
2023-02-15T23:06:34.622Z,1.50
2023-02-15T23:09:01.765Z,1.50
2023-02-15T23:11:29.056Z,1.50
2023-02-15T23:13:56.056Z,1.50
2023-02-15T23:16:22.813Z,1.50
2023-02-15T23:18:50.057Z,1.60
2023-02-15T23:21:21.429Z,1.70
2023-02-15T23:23:54.540Z,1.80
2023-02-15T23:26:27.745Z,1.70
2023-02-15T23:28:57.343Z,1.70
2023-02-15T23:31:25.207Z,1.50
2023-02-15T23:33:53.136Z,1.50
2023-02-15T23:36:39.447Z,1.40
2023-02-15T23:39:33.736Z,1.30
2023-02-15T23:42:03.517Z,1.40
2023-02-15T23:44:30.851Z,1.50
2023-02-15T23:46:58.231Z,1.60
2023-02-15T23:49:25.255Z,1.70
2023-02-15T23:51:57.116Z,1.70
2023-02-15T23:54:27.009Z,1.80
2023-02-15T23:56:59.154Z,1.80
2023-02-15T23:59:28.677Z,1.80
